Time;durP1;ratioP1;P1;durP2;ratioP2;P2;SDS_P1;SDS_P2;PMS_P1;PMS_P2;Temp;Humidity;BMP_temperature;BMP_pressure;BME280_temperature;BME280_humidity;BME280_pressure;Samples;Min_cycle;Max_cycle;Signal;HPM_P1;HPM_P2
2022/08/12 00:45:00;;;;;;;5.80;3.83;;;;;;;;;;5073807;28;20120;-81
2022/08/12 00:47:26;;;;;;;9.35;3.90;;;;;;;;;;5089705;28;20051;-83
2022/08/12 00:49:54;;;;;;;6.53;3.95;;;;;;;;;;5089650;28;20020;-81
2022/08/12 00:52:20;;;;;;;7.20;3.90;;;;;;;;;;5089102;28;20023;-82
2022/08/12 00:54:50;;;;;;;8.20;4.32;;;;;;;;;;5088709;28;20535;-82
2022/08/12 00:57:20;;;;;;;8.25;4.68;;;;;;;;;;5089181;28;20146;-82
2022/08/12 00:59:51;;;;;;;13.23;4.72;;;;;;;;;;5088684;28;20377;-80
2022/08/12 01:02:31;;;;;;;7.47;4.18;;;;;;;;;;5088848;28;20021;-79
2022/08/12 01:13:13;;;;;;;8.02;4.15;;;;;;;;;;5056738;28;20040;-80
2022/08/12 01:15:39;;;;;;;10.95;5.60;;;;;;;;;;5055538;28;20029;-80
2022/08/12 01:18:06;;;;;;;9.20;4.65;;;;;;;;;;5055633;28;20163;-80
2022/08/12 01:20:48;;;;;;;10.13;4.47;;;;;;;;;;5055178;28;20112;-80
2022/08/12 01:23:23;;;;;;;7.25;4.18;;;;;;;;;;5057185;28;20029;-81
2022/08/12 01:25:49;;;;;;;8.13;4.32;;;;;;;;;;5056649;28;20024;-80
2022/08/12 01:28:17;;;;;;;7.18;3.85;;;;;;;;;;5055137;28;20028;-81
2022/08/12 01:30:43;;;;;;;9.32;3.97;;;;;;;;;;5056984;28;20482;-81
2022/08/12 01:33:15;;;;;;;7.07;3.30;;;;;;;;;;5055205;28;20083;-81
2022/08/12 01:35:47;;;;;;;13.05;4.10;;;;;;;;;;5057186;28;20021;-81
2022/08/12 01:38:16;;;;;;;11.52;4.80;;;;;;;;;;5056653;28;20021;-82
2022/08/12 01:40:44;;;;;;;14.57;5.03;;;;;;;;;;5055830;28;20112;-81
2022/08/12 01:43:13;;;;;;;13.23;4.60;;;;;;;;;;5055027;28;20025;-82
2022/08/12 01:45:59;;;;;;;9.77;4.45;;;;;;;;;;5054944;28;20025;-82
2022/08/12 01:48:34;;;;;;;10.88;4.40;;;;;;;;;;5034904;28;20122;-81
2022/08/12 01:51:09;;;;;;;7.93;4.25;;;;;;;;;;5055226;28;20021;-81
2022/08/12 01:53:56;;;;;;;13.23;4.60;;;;;;;;;;5058338;28;20029;-81
2022/08/12 01:56:24;;;;;;;13.05;4.72;;;;;;;;;;5055947;28;20028;-81
2022/08/12 02:01:38;;;;;;;6.03;3.72;;;;;;;;;;5055609;28;20060;-82
2022/08/12 02:13:08;;;;;;;5.35;3.55;;;;;;;;;;5035936;28;20037;-82
2022/08/12 02:15:56;;;;;;;8.00;3.72;;;;;;;;;;5034520;28;20017;-82
2022/08/12 02:18:29;;;;;;;9.98;3.90;;;;;;;;;;5034202;28;20025;-82
2022/08/12 02:21:04;;;;;;;5.90;3.85;;;;;;;;;;5035941;28;20013;-82
2022/08/12 02:23:33;;;;;;;5.53;3.80;;;;;;;;;;5034141;28;20029;-81
2022/08/12 02:26:03;;;;;;;5.72;3.80;;;;;;;;;;5035711;28;20024;-81
2022/08/12 02:28:29;;;;;;;5.65;3.70;;;;;;;;;;5034444;28;20033;-81
2022/08/12 02:30:56;;;;;;;6.70;3.80;;;;;;;;;;5035704;28;20374;-81
2022/08/12 02:33:22;;;;;;;8.55;4.57;;;;;;;;;;5034229;28;20041;-81
2022/08/12 02:35:50;;;;;;;6.80;4.85;;;;;;;;;;5035614;28;20014;-82
2022/08/12 02:38:17;;;;;;;7.18;4.25;;;;;;;;;;5034121;28;20022;-82
2022/08/12 02:40:44;;;;;;;7.47;4.20;;;;;;;;;;5034070;28;20091;-81
2022/08/12 02:43:22;;;;;;;14.05;4.88;;;;;;;;;;5035251;28;20026;-81
2022/08/12 02:45:54;;;;;;;8.60;4.68;;;;;;;;;;5034886;28;20470;-81
2022/08/12 02:48:44;;;;;;;6.05;4.57;;;;;;;;;;5034103;28;20047;-80
2022/08/12 02:51:12;;;;;;;5.43;4.30;;;;;;;;;;5033811;28;20033;-81
2022/08/12 02:53:38;;;;;;;6.65;4.13;;;;;;;;;;5035088;28;20029;-81
2022/08/12 02:56:05;;;;;;;6.95;3.95;;;;;;;;;;5034284;28;20131;-81
2022/08/12 02:58:33;;;;;;;5.38;3.90;;;;;;;;;;5033533;28;20021;-81
2022/08/12 03:01:01;;;;;;;5.65;4.38;;;;;;;;;;5033735;28;20032;-81
2022/08/12 03:03:31;;;;;;;6.60;3.85;;;;;;;;;;5034989;28;20083;-81
2022/08/12 03:05:59;;;;;;;8.40;4.78;;;;;;;;;;5074655;28;20021;-81
2022/08/12 03:08:29;;;;;;;8.63;4.82;;;;;;;;;;5090685;28;20154;-81
2022/08/12 03:10:59;;;;;;;5.20;3.97;;;;;;;;;;5075100;28;20150;-81
2022/08/12 03:13:25;;;;;;;5.53;3.78;;;;;;;;;;5090131;28;20037;-82
2022/08/12 03:15:55;;;;;;;8.52;4.07;;;;;;;;;;5090174;28;20075;-80
2022/08/12 03:18:27;;;;;;;12.32;4.40;;;;;;;;;;5089509;28;20016;-81
2022/08/12 03:20:53;;;;;;;7.23;4.17;;;;;;;;;;5090427;28;20477;-81
2022/08/12 03:23:21;;;;;;;8.23;4.35;;;;;;;;;;5090278;28;20293;-82
2022/08/12 03:25:50;;;;;;;9.15;4.47;;;;;;;;;;5089993;28;20024;-81
2022/08/12 03:28:49;;;;;;;6.00;4.03;;;;;;;;;;5090156;28;20036;-81
2022/08/12 03:31:03;;;;;;;6.82;4.30;;;;;;;;;;5073145;28;20025;-81
2022/08/12 03:33:33;;;;;;;10.88;4.82;;;;;;;;;;5089634;28;20496;-81
2022/08/12 03:36:01;;;;;;;8.27;4.63;;;;;;;;;;5089818;28;20412;-82
2022/08/12 03:38:29;;;;;;;6.95;4.72;;;;;;;;;;5089828;28;20056;-81
2022/08/12 04:00:27;;;;;;;8.02;4.93;;;;;;;;;;5073780;28;20082;-82
2022/08/12 04:03:04;;;;;;;7.97;4.72;;;;;;;;;;5089526;28;20035;-82
2022/08/12 04:05:31;;;;;;;8.98;4.65;;;;;;;;;;5089340;28;20044;-82
2022/08/12 04:07:58;;;;;;;7.63;4.50;;;;;;;;;;5089428;28;20059;-82
2022/08/12 04:13:20;;;;;;;9.93;5.25;;;;;;;;;;5074644;28;20406;-83
2022/08/12 04:15:46;;;;;;;8.70;5.20;;;;;;;;;;5089850;28;20028;-83
2022/08/12 04:18:14;;;;;;;8.80;5.43;;;;;;;;;;5074247;28;20480;-82
2022/08/12 04:20:45;;;;;;;6.57;4.40;;;;;;;;;;5089596;28;20028;-82
2022/08/12 04:23:11;;;;;;;7.60;4.60;;;;;;;;;;5089172;28;20028;-82
2022/08/12 04:25:39;;;;;;;9.27;4.55;;;;;;;;;;5073892;28;20032;-82
2022/08/12 04:28:06;;;;;;;7.63;4.13;;;;;;;;;;5089497;28;20021;-82
2022/08/12 04:30:33;;;;;;;7.97;4.63;;;;;;;;;;5088976;28;20031;-81
2022/08/12 04:32:59;;;;;;;7.85;4.68;;;;;;;;;;5089434;28;20021;-82
2022/08/12 04:35:26;;;;;;;7.13;4.55;;;;;;;;;;5089365;28;20017;-82
2022/08/12 04:37:54;;;;;;;7.80;4.55;;;;;;;;;;5074056;28;20056;-82
2022/08/12 04:40:24;;;;;;;6.75;4.85;;;;;;;;;;5073972;28;20021;-83
2022/08/12 04:42:50;;;;;;;8.43;4.45;;;;;;;;;;5113634;28;20016;-83
2022/08/12 04:45:17;;;;;;;13.57;5.40;;;;;;;;;;5118826;28;20025;-81
2022/08/12 04:47:43;;;;;;;8.18;5.15;;;;;;;;;;5102349;28;20016;-82
2022/08/12 04:50:10;;;;;;;10.27;5.30;;;;;;;;;;5101764;28;20046;-82
2022/08/12 04:52:37;;;;;;;12.68;5.22;;;;;;;;;;5118519;28;20044;-82
2022/08/12 04:55:03;;;;;;;10.27;5.18;;;;;;;;;;5118330;28;20024;-83
2022/08/12 04:57:29;;;;;;;10.20;5.35;;;;;;;;;;5094681;28;20462;-83
2022/08/12 04:59:55;;;;;;;8.65;4.72;;;;;;;;;;5093683;28;20020;-83
2022/08/12 05:02:21;;;;;;;10.40;5.93;;;;;;;;;;5096025;28;20017;-82
2022/08/12 05:04:48;;;;;;;9.40;4.78;;;;;;;;;;5094922;28;20502;-82
2022/08/12 05:07:14;;;;;;;13.38;6.50;;;;;;;;;;5092920;28;20024;-82
2022/08/12 05:09:40;;;;;;;7.45;5.07;;;;;;;;;;5092789;28;20024;-82
2022/08/12 05:12:07;;;;;;;9.75;5.00;;;;;;;;;;5092297;28;20020;-82
2022/08/12 05:14:33;;;;;;;9.55;5.18;;;;;;;;;;5092486;28;20429;-82
2022/08/12 05:16:59;;;;;;;10.55;5.60;;;;;;;;;;5092849;28;20025;-83
2022/08/12 05:19:25;;;;;;;8.50;5.65;;;;;;;;;;5092203;28;20021;-82
2022/08/12 05:21:52;;;;;;;10.35;5.53;;;;;;;;;;5076787;28;20107;-82
2022/08/12 05:24:18;;;;;;;8.52;5.18;;;;;;;;;;5092042;28;20033;-82
2022/08/12 05:26:44;;;;;;;8.90;5.80;;;;;;;;;;5092341;28;20070;-82
2022/08/12 05:29:11;;;;;;;9.45;5.43;;;;;;;;;;5092395;28;20020;-82
2022/08/12 05:31:38;;;;;;;9.52;5.40;;;;;;;;;;5091932;28;20021;-82
2022/08/12 05:34:04;;;;;;;8.70;5.28;;;;;;;;;;5092084;28;20032;-83
2022/08/12 05:36:30;;;;;;;10.55;4.68;;;;;;;;;;5092296;28;20122;-82
2022/08/12 05:38:57;;;;;;;9.30;5.45;;;;;;;;;;5092024;28;20403;-82
2022/08/12 05:41:24;;;;;;;8.15;4.97;;;;;;;;;;5091990;28;20032;-82
2022/08/12 05:43:52;;;;;;;11.25;5.05;;;;;;;;;;5092189;28;20021;-82
2022/08/12 05:46:18;;;;;;;7.90;5.38;;;;;;;;;;5091815;28;20021;-83
2022/08/12 05:48:44;;;;;;;10.27;5.20;;;486.40;2380.80;;;;;;5091700;28;20086;-82
2022/08/12 05:51:10;;;;;;;9.38;5.28;;;486.40;2380.80;;;;;;5058374;28;20028;-84
2022/08/12 05:53:40;;;;;;;8.50;4.97;;;486.50;2380.80;;;;;;5057160;28;20033;-82
2022/08/12 05:56:22;;;;;;;9.43;4.75;;;486.50;2380.80;;;;;;5058369;28;20078;-82
2022/08/12 05:58:50;;;;;;;11.60;5.45;;;486.50;2380.80;;;;;;5058337;28;20055;-82
2022/08/12 06:01:16;;;;;;;11.15;5.18;;;486.50;2380.80;;;;;;5058238;28;20473;-83
2022/08/12 06:03:42;;;;;;;10.20;4.82;;;486.60;2380.80;;;;;;5057837;28;20123;-82
2022/08/12 06:06:09;;;;;;;6.88;4.28;;;486.70;2380.80;;;;;;5058064;28;20466;-82
2022/08/12 06:08:35;;;;;;;7.55;5.57;;;486.80;2380.80;;;;;;5075524;28;20500;-82
2022/08/12 06:11:05;;;;;;;12.05;5.57;;;486.80;2380.80;;;;;;5057858;28;20029;-82
2022/08/12 06:13:37;;;;;;;5.72;4.72;;;486.90;2380.80;;;;;;5091142;28;20035;-82
2022/08/12 06:16:05;;;;;;;11.93;4.95;;;486.90;2380.80;;;;;;5057763;28;20028;-82
2022/08/12 06:18:31;;;;;;;8.63;4.50;;;486.90;2380.80;;;;;;5058185;28;20029;-80
2022/08/12 06:20:59;;;;;;;6.80;4.40;;;487.00;2380.80;;;;;;5058070;28;20384;-81
2022/08/12 06:23:27;;;;;;;10.98;5.22;;;487.20;2380.80;;;;;;5057900;28;20036;-81
2022/08/12 06:25:57;;;;;;;8.50;4.78;;;487.10;2380.80;;;;;;5057894;28;20028;-81
2022/08/12 06:28:23;;;;;;;10.95;4.80;;;487.30;2380.80;;;;;;5057583;28;20031;-81
2022/08/12 06:30:50;;;;;;;9.80;4.70;;;512.00;2380.80;;;;;;5075738;28;20017;-81
2022/08/12 06:33:17;;;;;;;9.63;5.00;;;512.10;2380.80;;;;;;5057800;28;20435;-81
2022/08/12 06:35:43;;;;;;;12.93;5.63;;;512.10;2380.80;;;;;;5057388;28;20116;-81
2022/08/12 06:38:15;;;;;;;10.48;5.22;;;512.10;2380.80;;;;;;5057760;28;20524;-81
2022/08/12 06:43:30;;;;;;;7.45;5.25;;;512.20;2380.80;;;;;;5075755;28;20120;-82
2022/08/12 06:45:57;;;;;;;11.00;4.95;;;512.30;2380.80;;;;;;5057845;28;20295;-81
2022/08/12 06:48:27;;;;;;;12.07;4.78;;;512.30;2380.80;;;;;;5061412;28;20367;-81
2022/08/12 06:50:54;;;;;;;14.52;5.45;;;512.60;2380.80;;;;;;5057675;28;20020;-81
2022/08/12 06:53:23;;;;;;;17.85;5.32;;;512.50;2380.80;;;;;;5057538;28;20032;-81
2022/08/12 06:55:49;;;;;;;11.15;5.53;;;512.50;2380.80;;;;;;5056863;28;20032;-81
2022/08/12 06:58:16;;;;;;;9.02;5.07;;;512.20;2380.80;;;;;;5075338;28;20031;-81
2022/08/12 07:00:42;;;;;;;13.38;5.38;;;512.70;2380.80;;;;;;5057489;28;20024;-81
2022/08/12 07:03:16;;;;;;;12.50;5.28;;;512.70;2380.80;;;;;;5060599;28;20036;-80
2022/08/12 07:05:43;;;;;;;10.27;5.45;;;512.70;2380.80;;;;;;5061892;28;20102;-80
2022/08/12 07:08:09;;;;;;;8.85;4.90;;;512.80;2380.80;;;;;;5081746;28;20031;-79
2022/08/12 07:10:44;;;;;;;10.45;4.78;;;512.90;2380.80;;;;;;5063804;28;20529;-79
2022/08/12 07:13:10;;;;;;;9.00;5.72;;;537.60;2406.40;;;;;;5066928;28;20095;-79
2022/08/12 07:15:38;;;;;;;16.25;5.90;;;537.60;2406.40;;;;;;5064042;28;20059;-80
2022/08/12 07:18:18;;;;;;;10.82;5.65;;;537.60;2406.40;;;;;;5076722;28;20377;-80
2022/08/12 07:20:48;;;;;;;14.35;5.65;;;;;;;;;;5059562;28;20025;-80
2022/08/12 07:23:16;;;;;;;10.70;5.55;;;;;;;;;;5089959;28;20073;-79
2022/08/12 07:25:42;;;;;;;12.68;5.80;;;;;;;;;;5074435;28;20483;-82
2022/08/12 07:28:18;;;;;;;10.55;5.82;;;538.30;2406.40;;;;;;5090370;28;20029;-82
2022/08/12 07:30:49;;;;;;;10.63;5.72;;;538.30;2406.40;;;;;;5056753;28;20427;-83
2022/08/12 07:33:17;;;;;;;10.35;6.38;;;538.50;2406.40;;;;;;5056721;28;20028;-83
2022/08/12 07:35:46;;;;;;;13.70;6.55;;;563.20;2432.00;;;;;;5056671;28;20032;-84
2022/08/12 07:38:38;;;;;;;6.07;4.10;;;563.40;2432.00;;;;;;5056584;28;20025;-82
2022/08/12 07:41:10;;;;;;;14.73;4.72;;;563.50;2432.00;;;;;;5056573;28;20074;-82
2022/08/12 07:43:39;;;;;;;13.18;5.05;;;563.50;2432.00;;;;;;5089980;28;20029;-83
2022/08/12 07:46:07;;;;;;;12.57;5.15;;;563.60;2432.00;;;;;;5056317;28;20046;-86
2022/08/12 07:48:44;;;;;;;6.60;4.45;;;563.70;2432.00;;;;;;5056272;28;20035;-82
2022/08/12 07:51:10;;;;;;;8.65;5.05;;;563.90;2432.00;;;;;;5056228;28;20028;-84
2022/08/12 07:53:37;;;;;;;8.82;5.25;;;563.80;2432.00;;;;;;5058941;28;20028;-81
2022/08/12 07:56:06;;;;;;;8.23;4.53;;;564.10;2432.00;;;;;;5060309;28;20531;-82
2022/08/12 07:58:32;;;;;;;8.93;4.82;;;;;;;;;;5057544;28;20089;-83
2022/08/12 08:01:03;;;;;;;9.35;4.93;;;;;;;;;;5074226;28;20086;-83
2022/08/12 08:03:29;;;;;;;7.75;4.93;;;589.30;2432.00;;;;;;5089787;28;20541;-82
2022/08/12 08:05:55;;;;;;;10.13;5.47;;;589.20;2432.00;;;;;;5056494;28;20072;-85
2022/08/12 08:08:27;;;;;;;9.52;4.82;;;589.30;2432.00;;;;;;5056261;28;20058;-83
2022/08/12 08:12:52;;;;;;;10.05;5.22;;;589.60;2406.40;;;;;;5056337;28;20050;-83
2022/08/12 08:13:44;;;;;;;6.85;4.47;;;614.40;2380.80;;;;;;5073635;28;20539;-87
2022/08/12 08:16:13;;;;;;;9.52;4.68;;;614.40;2380.80;;;;;;5056743;28;20103;-86
2022/08/12 08:18:52;;;;;;;7.65;5.13;;;614.40;2380.80;;;;;;5057398;28;20070;-88
2022/08/12 08:21:20;;;;;;;9.75;4.88;;;614.70;2380.80;;;;;;5057258;28;20056;-86
2022/08/12 08:26:34;;;;;;;6.13;4.72;;;614.80;2380.80;;;;;;5075840;28;20036;-86
2022/08/12 08:29:00;;;;;;;9.80;5.88;;;614.80;2406.40;;;;;;5057732;28;20046;-87
2022/08/12 08:31:26;;;;;;;10.30;7.25;;;614.90;2380.80;;;;;;5058383;28;20119;-88
2022/08/12 08:33:54;;;;;;;14.05;6.85;;;614.90;2380.80;;;;;;5071020;28;20024;-86
2022/08/12 08:36:38;;;;;;;13.18;5.72;;;615.10;2355.20;;;;;;5077494;28;20024;-92
2022/08/12 08:39:08;;;;;;;8.63;4.90;;;640.00;2329.60;;;;;;5076959;28;20046;-86
2022/08/12 08:44:20;;;;;;;7.68;6.00;;;640.40;2304.00;;;;;;5095204;28;20516;-86
2022/08/12 08:46:48;;;;;;;11.40;5.95;;;640.60;2329.60;;;;;;5077857;28;20020;-85
2022/08/12 08:49:15;;;;;;;10.70;5.85;;;665.70;2304.00;;;;;;5076735;28;20020;-84
2022/08/12 08:51:44;;;;;;;6.15;5.32;;;665.60;2304.00;;;;;;5078174;28;20035;-83
2022/08/12 08:54:11;;;;;;;7.55;5.20;;;665.80;2329.60;;;;;;5076718;28;20039;-83
2022/08/12 08:56:42;;;;;;;10.15;5.30;;;665.80;2278.40;;;;;;5076844;28;20036;-83
2022/08/12 08:59:10;;;;;;;8.32;7.40;;;666.10;2252.80;;;;;;5076375;28;20024;-86
2022/08/12 09:01:36;;;;;;;11.23;5.88;;;666.00;2252.80;;;;;;5075699;28;20028;-85
2022/08/12 09:04:02;;;;;;;7.82;5.10;;;665.70;2227.20;;;;;;5074582;28;20089;-84
2022/08/12 09:06:28;;;;;;;10.15;5.28;;;666.40;2227.20;;;;;;5079734;28;20107;-88
2022/08/12 09:08:53;;;;;;;9.52;5.18;;;691.30;2227.20;;;;;;5075556;28;20024;-84
2022/08/12 09:14:06;;;;;;;6.88;5.35;;;691.30;2227.20;;;;;;5094983;28;20120;-86
2022/08/12 09:16:33;;;;;;;7.32;5.30;;;691.30;2227.20;;;;;;5076512;28;20102;-84
2022/08/12 09:19:00;;;;;;;9.77;6.03;;;691.50;2252.80;;;;;;5075984;28;20031;-83
2022/08/12 09:21:27;;;;;;;7.63;5.57;;;691.70;2176.00;;;;;;5075401;28;20027;-86
2022/08/12 09:23:57;;;;;;;10.52;5.32;;;691.50;2201.60;;;;;;5075152;28;20042;-84
2022/08/12 09:26:24;;;;;;;7.68;5.20;;;691.30;2201.60;;;;;;5075334;28;20031;-81
2022/08/12 09:28:50;;;;;;;10.38;5.07;;;691.40;2201.60;;;;;;5075832;28;20024;-82
2022/08/12 09:31:16;;;;;;;9.07;5.28;;;691.50;2201.60;;;;;;5078886;28;20028;-84
2022/08/12 09:33:42;;;;;;;6.55;4.80;;;691.80;2176.00;;;;;;5079126;28;20557;-86
2022/08/12 09:36:08;;;;;;;7.50;4.15;;;;;;;;;;5078999;28;20095;-83
2022/08/12 09:38:34;;;;;;;6.85;4.80;;;717.10;2150.40;;;;;;5079094;28;20065;-83
2022/08/12 09:41:00;;;;;;;7.85;5.00;;;717.20;2124.80;;;;;;5097391;28;20036;-84
2022/08/12 09:46:15;;;;;;;7.30;4.88;;;717.30;2124.80;;;;;;5097255;28;20031;-84
2022/08/12 09:48:41;;;;;;;7.72;5.07;;;717.20;2124.80;;;;;;5078757;28;20385;-84
2022/08/12 09:51:07;;;;;;;5.75;4.63;;;717.20;2124.80;;;;;;5079040;28;20064;-86
2022/08/12 09:53:33;;;;;;;9.25;5.65;;;717.40;2124.80;;;;;;5097014;28;20056;-85
2022/08/12 09:56:01;;;;;;;5.47;4.05;;;717.30;2073.60;;;;;;5078791;28;20469;-84
2022/08/12 09:58:28;;;;;;;7.55;4.32;;;717.20;2073.60;;;;;;5079213;28;20059;-83
2022/08/12 10:01:00;;;;;;;6.63;4.18;;;716.90;2073.60;;;;;;5078748;28;20024;-86
2022/08/12 10:03:30;;;;;;;6.90;4.53;;;717.20;2099.20;;;;;;5084724;28;20036;-84
2022/08/12 10:05:59;;;;;;;7.95;6.43;;;717.30;2073.60;;;;;;5071234;28;20045;-84
2022/08/12 10:08:29;;;;;;;7.38;5.32;;;742.40;2124.80;;;;;;5057642;28;20048;-86
2022/08/12 10:13:40;;;;;;;9.05;4.93;;;;;;;;;;5056015;28;20510;-84
2022/08/12 10:16:11;;;;;;;9.98;5.03;;;;;;;;;;5054788;28;20044;-83
2022/08/12 10:18:37;;;;;;;6.95;5.25;;;;;;;;;;5055007;28;20025;-84
2022/08/12 10:21:24;;;;;;;5.00;4.18;;;;;;;;;;5055044;28;20022;-86
2022/08/12 10:23:51;;;;;;;7.32;4.40;;;;;;;;;;5054560;28;20422;-85
2022/08/12 10:31:52;;;;;;;8.07;5.50;;;;;;;;;;5056225;28;20031;-85
2022/08/12 10:34:19;;;;;;;8.00;6.10;;;;;;;;;;5054656;28;20037;-86
2022/08/12 10:36:47;;;;;;;6.60;4.05;;;;;;;;;;5055294;28;20474;-85
2022/08/12 10:39:15;;;;;;;5.45;4.30;;;;;;;;;;5054427;28;20052;-86
2022/08/12 10:44:26;;;;;;;7.90;6.70;;;;;;;;;;5055322;28;20071;-85
2022/08/12 10:46:53;;;;;;;10.00;8.05;;;;;;;;;;5054459;28;20032;-85
2022/08/12 10:49:19;;;;;;;7.43;5.45;;;;;;;;;;5054304;28;20029;-85
2022/08/12 10:51:48;;;;;;;4.50;3.47;;;;;;;;;;5055073;28;20474;-84
2022/08/12 10:54:15;;;;;;;8.10;5.05;;;;;;;;;;5054114;28;20474;-85
2022/08/12 10:56:44;;;;;;;7.03;4.93;;;;;;;;;;5054070;28;20021;-84
2022/08/12 10:59:10;;;;;;;9.20;4.60;;;;;;;;;;5053837;28;20469;-85
2022/08/12 11:01:36;;;;;;;7.00;5.07;;;;;;;;;;5054028;28;20032;-86
2022/08/12 11:04:04;;;;;;;4.85;3.72;;;;;;;;;;5056794;28;20052;-83
2022/08/12 11:06:30;;;;;;;4.60;3.58;;;;;;;;;;5074863;28;20017;-85
2022/08/12 11:08:56;;;;;;;7.50;3.92;;;;;;;;;;5074489;28;20027;-87
2022/08/12 11:11:24;;;;;;;6.95;4.28;;;;;;;;;;5073630;28;20027;-82
2022/08/12 11:13:50;;;;;;;8.13;3.25;;;;;;;;;;5073369;28;20040;-86
2022/08/12 11:16:16;;;;;;;6.18;3.90;;;;;;;;;;5074223;28;20374;-85
2022/08/12 11:18:43;;;;;;;6.50;3.83;;;;;;;;;;5073512;28;20421;-82
2022/08/12 11:21:09;;;;;;;5.85;4.63;;;;;;;;;;5073381;28;20068;-83
2022/08/12 11:23:35;;;;;;;6.80;4.25;;;;;;;;;;5073446;28;20025;-84
2022/08/12 11:26:02;;;;;;;5.07;3.92;;;;;;;;;;5067145;28;20070;-84
2022/08/12 11:28:28;;;;;;;4.35;2.80;;;;;;;;;;5073584;28;20040;-84
2022/08/12 11:30:54;;;;;;;5.75;2.85;;;;;;;;;;5068424;28;20140;-83
2022/08/12 11:33:20;;;;;;;4.47;2.90;;;;;;;;;;5067468;28;20017;-84
2022/08/12 11:35:46;;;;;;;4.85;3.65;;;;;;;;;;5071802;28;20029;-82
2022/08/12 11:38:13;;;;;;;6.45;3.15;;;;;;;;;;5067261;28;20059;-84
2022/08/12 11:40:39;;;;;;;5.10;3.15;;;;;;;;;;5070360;28;20043;-85
2022/08/12 11:43:05;;;;;;;7.55;3.50;;;;;;;;;;5073625;28;20103;-84
2022/08/12 11:45:31;;;;;;;8.35;5.25;;;;;;;;;;5074201;28;20055;-84
2022/08/12 11:47:58;;;;;;;6.55;3.92;;;;;;;;;;5073012;28;20481;-84
2022/08/12 11:50:24;;;;;;;10.15;5.80;;;;;;;;;;5074445;28;20020;-84
2022/08/12 11:52:51;;;;;;;4.40;3.40;;;;;;;;;;5073390;28;20035;-84
2022/08/12 11:55:18;;;;;;;5.45;4.22;;;;;;;;;;5073738;28;20028;-82
2022/08/12 11:57:51;;;;;;;8.35;5.22;;;;;;;;;;5074378;28;20015;-85
2022/08/12 12:00:18;;;;;;;8.40;4.55;;;;;;;;;;5074890;28;20027;-82
2022/08/12 12:02:44;;;;;;;4.88;3.22;;;;;;;;;;5074405;28;20048;-86
2022/08/12 12:05:14;;;;;;;6.03;3.75;;;;;;;;;;5074350;28;20045;-84
2022/08/12 12:07:41;;;;;;;8.60;3.42;;;;;;;;;;5079529;28;20027;-82
2022/08/12 12:10:08;;;;;;;6.22;3.40;;;;;;;;;;5084290;28;20089;-83
2022/08/12 12:12:35;;;;;;;4.75;3.42;;;;;;;;;;5081920;28;20107;-84
2022/08/12 12:15:03;;;;;;;3.80;2.80;;;;;;;;;;5072878;28;20029;-83
2022/08/12 12:17:29;;;;;;;5.75;2.97;;;;;;;;;;5072901;28;20017;-84
2022/08/12 12:19:55;;;;;;;3.50;2.80;;;;;;;;;;5074212;28;20028;-84
2022/08/12 12:22:22;;;;;;;5.18;3.60;;;;;;;;;;5072806;28;20024;-84
2022/08/12 12:24:49;;;;;;;10.52;5.80;;;;;;;;;;5072957;28;20055;-83
2022/08/12 12:27:19;;;;;;;5.40;4.25;;;;;;;;;;5072770;28;20020;-85
2022/08/12 12:29:45;;;;;;;4.32;3.08;;;;;;;;;;5073826;28;20020;-85
2022/08/12 12:32:12;;;;;;;4.80;2.95;;;;;;;;;;5072917;28;20116;-86
2022/08/12 12:34:38;;;;;;;6.40;4.68;;;;;;;;;;5072884;28;20032;-82
2022/08/12 12:37:04;;;;;;;5.28;3.63;;;;;;;;;;5072520;28;20023;-83
2022/08/12 12:39:30;;;;;;;7.45;4.50;;;;;;;;;;5072567;28;20029;-84
2022/08/12 12:41:56;;;;;;;5.25;3.55;;;;;;;;;;5072457;28;20474;-84
2022/08/12 12:44:22;;;;;;;5.03;3.53;;;;;;;;;;5072854;28;20461;-84
2022/08/12 12:46:49;;;;;;;8.25;4.25;;;;;;;;;;5072674;28;20555;-83
2022/08/12 12:49:15;;;;;;;10.13;5.10;;;;;;;;;;5072179;28;20035;-84
2022/08/12 12:51:41;;;;;;;7.13;4.22;;;;;;;;;;5072743;28;20017;-82
2022/08/12 12:54:09;;;;;;;5.28;3.33;;;;;;;;;;5072723;28;20363;-83
2022/08/12 12:56:39;;;;;;;4.15;3.30;;;;;;;;;;5072624;28;20044;-82
2022/08/12 12:59:05;;;;;;;4.43;3.25;;;;;;;;;;5072547;28;20382;-83
2022/08/12 13:01:32;;;;;;;5.72;3.20;;;;;;;;;;5072734;28;20028;-83
2022/08/12 13:03:58;;;;;;;4.38;3.00;;;;;;;;;;5074930;28;20095;-83
2022/08/12 13:06:28;;;;;;;5.30;3.25;;;;;;;;;;5075871;28;20029;-83
2022/08/12 13:08:58;;;;;;;9.32;6.75;;;;;;;;;;5075996;28;20024;-86
2022/08/12 13:11:24;;;;;;;9.02;3.90;;;;;;;;;;5075887;28;20017;-83
2022/08/12 13:13:52;;;;;;;5.75;3.63;;;;;;;;;;5075936;28;20530;-85
2022/08/12 13:16:21;;;;;;;6.70;3.05;;;947.30;1459.20;;;;;;5076338;28;20025;-85
2022/08/12 13:18:52;;;;;;;5.00;2.65;;;947.30;1433.60;;;;;;5076212;28;20078;-84
2022/08/12 13:21:18;;;;;;;10.73;3.50;;;947.20;1433.60;;;;;;5076381;28;20055;-83
2022/08/12 13:23:49;;;;;;;7.53;3.92;;;922.10;1408.00;;;;;;5075900;28;20466;-85
2022/08/12 13:26:16;;;;;;;5.18;2.88;;;922.50;1459.20;;;;;;5076169;28;20029;-85
2022/08/12 13:28:44;;;;;;;6.07;3.25;;;922.50;1433.60;;;;;;5076198;28;20032;-86
2022/08/12 13:31:11;;;;;;;7.45;2.75;;;947.30;1459.20;;;;;;5075913;28;20120;-86
2022/08/12 13:33:37;;;;;;;4.60;3.05;;;947.40;1408.00;;;;;;5075489;28;20044;-86
2022/08/12 13:36:04;;;;;;;5.90;3.13;;;947.60;1459.20;;;;;;5076066;28;20091;-84
2022/08/12 13:38:38;;;;;;;6.68;2.83;;;947.60;1433.60;;;;;;5075862;28;20032;-86
2022/08/12 13:41:06;;;;;;;11.63;3.30;;;948.10;1408.00;;;;;;5075701;28;20035;-85
2022/08/12 13:43:32;;;;;;;5.07;2.90;;;948.10;1408.00;;;;;;5075600;28;20058;-87
2022/08/12 13:45:59;;;;;;;3.85;2.90;;;922.20;1459.20;;;;;;5075352;28;20031;-84
2022/08/12 13:48:25;;;;;;;5.78;3.40;;;;;;;;;;5076898;28;20024;-85
2022/08/12 13:50:51;;;;;;;8.88;4.00;;;;;;;;;;5075345;28;20017;-82
2022/08/12 13:53:18;;;;;;;5.82;2.67;;;;;;;;;;5075567;28;20022;-84
2022/08/12 13:55:46;;;;;;;10.65;6.30;;;;;;;;;;5076759;28;20059;-85
2022/08/12 13:58:15;;;;;;;4.53;3.00;;;;;;;;;;5075306;28;20031;-85
2022/08/12 14:00:42;;;;;;;4.25;2.88;;;;;;;;;;5075334;28;20428;-84
2022/08/12 14:03:11;;;;;;;7.25;4.40;;;;;;;;;;5075578;28;20131;-84
2022/08/12 14:05:37;;;;;;;5.60;4.47;;;;;;;;;;5075520;28;20394;-84
2022/08/12 14:08:07;;;;;;;5.88;4.25;;;;;;;;;;5076593;28;20430;-84
2022/08/12 14:10:42;;;;;;;9.68;4.75;;;;;;;;;;5075380;28;20024;-84
2022/08/12 14:13:13;;;;;;;5.95;4.22;;;;;;;;;;5075602;28;20123;-84
2022/08/12 14:15:46;;;;;;;10.43;3.80;;;;;;;;;;5074385;28;20033;-85
2022/08/12 14:18:32;;;;;;;11.90;3.90;;;;;;;;;;5075212;28;20522;-84
2022/08/12 14:21:02;;;;;;;6.43;4.72;;;;;;;;;;5075245;28;20032;-84
2022/08/12 14:23:35;;;;;;;8.20;4.20;;;;;;;;;;5074987;28;20025;-84
2022/08/12 14:26:04;;;;;;;8.43;5.68;;;;;;;;;;5074950;28;20028;-84
2022/08/12 14:28:31;;;;;;;7.10;5.63;;;;;;;;;;5074626;28;20020;-84
2022/08/12 14:31:05;;;;;;;7.38;4.35;;;;;;;;;;5074919;28;20165;-84
2022/08/12 14:33:35;;;;;;;6.00;4.10;;;845.20;1612.80;;;;;;5074288;28;20021;-84
2022/08/12 14:36:04;;;;;;;9.55;3.58;;;844.90;1612.80;;;;;;5074772;28;20355;-85
2022/08/12 14:38:38;;;;;;;7.63;4.65;;;844.90;1612.80;;;;;;5074840;28;20115;-84
2022/08/12 14:41:05;;;;;;;9.23;3.80;;;844.90;1638.40;;;;;;5074753;28;20056;-84
2022/08/12 14:43:34;;;;;;;5.25;4.10;;;845.30;1612.80;;;;;;5074522;28;20111;-84
2022/08/12 14:46:03;;;;;;;5.25;3.58;;;870.50;1587.20;;;;;;5074348;28;20389;-84
2022/08/12 14:48:29;;;;;;;5.28;3.63;;;870.50;1561.60;;;;;;5074111;28;20030;-84
2022/08/12 14:50:55;;;;;;;6.40;4.00;;;;;;;;;;5074559;28;20059;-83
2022/08/12 14:53:22;;;;;;;6.28;4.00;;;;;;;;;;5074590;28;20417;-83
2022/08/12 14:55:48;;;;;;;8.77;4.15;;;;;;;;;;5074154;28;20120;-83
2022/08/12 14:58:18;;;;;;;8.43;5.10;;;;;;;;;;5074270;28;20021;-83
2022/08/12 15:03:36;;;;;;;7.80;5.20;;;896.90;1484.80;;;;;;5075251;28;20027;-84
2022/08/12 15:06:07;;;;;;;4.97;3.90;;;896.70;1510.40;;;;;;5073627;28;20044;-84
2022/08/12 15:09:06;;;;;;;8.53;3.83;;;896.00;1510.40;;;;;;5074167;28;20056;-84
2022/08/12 15:11:35;;;;;;;7.95;3.90;;;;;;;;;;5074504;28;20300;-84
2022/08/12 15:14:01;;;;;;;7.15;3.03;;;;;;;;;;5074308;28;20031;-86
2022/08/12 15:16:30;;;;;;;5.32;3.78;;;845.60;1536.00;;;;;;5074136;28;20024;-85
2022/08/12 15:18:56;;;;;;;6.38;3.55;;;845.20;1561.60;;;;;;5074686;28;20480;-85
2022/08/12 15:21:23;;;;;;;6.68;3.35;;;844.80;1587.20;;;;;;5073737;28;20021;-84
2022/08/12 15:23:49;;;;;;;4.43;3.50;;;;;;;;;;5073663;28;20393;-87
2022/08/12 15:26:15;;;;;;;8.07;4.47;;;820.00;1587.20;;;;;;5073628;28;20017;-87
2022/08/12 15:28:44;;;;;;;6.72;3.85;;;819.60;1587.20;;;;;;5073631;28;20028;-86
2022/08/12 15:31:12;;;;;;;8.48;3.55;;;819.60;1612.80;;;;;;5073767;28;20025;-87
2022/08/12 15:33:39;;;;;;;6.18;3.40;;;819.30;1612.80;;;;;;5073839;28;20040;-87
2022/08/12 15:36:09;;;;;;;6.00;3.95;;;819.30;1612.80;;;;;;5074445;28;20027;-86
2022/08/12 15:38:36;;;;;;;4.78;3.60;;;794.50;1612.80;;;;;;5073892;28;20017;-87
2022/08/12 15:41:04;;;;;;;8.50;5.22;;;794.40;1664.00;;;;;;5073583;28;20024;-87